Time;durP1;ratioP1;P1;durP2;ratioP2;P2;SDS_P1;SDS_P2;PMS_P1;PMS_P2;Temp;Humidity;BMP_temperature;BMP_pressure;BME280_temperature;BME280_humidity;BME280_pressure;Samples;Min_cycle;Max_cycle;Signal;HPM_P1;HPM_P2
2023/01/24 00:01:03;;;;;;;19.30;11.73;;;;;;;2.65;100.00;102196.06;5075625;28;20204;-78
2023/01/24 00:03:30;;;;;;;21.17;11.38;;;;;;;2.55;100.00;102195.00;5062801;28;20207;-78
2023/01/24 00:05:58;;;;;;;21.55;13.32;;;;;;;2.62;100.00;102204.91;5063837;28;20285;-78
2023/01/24 00:08:24;;;;;;;18.48;12.07;;;;;;;2.56;100.00;102202.13;5061729;28;20295;-77
2023/01/24 00:10:59;;;;;;;18.80;11.65;;;;;;;2.46;100.00;102201.06;5063094;28;20530;-79
2023/01/24 00:13:26;;;;;;;19.50;11.70;;;;;;;2.41;100.00;102200.09;5066614;28;20204;-77
2023/01/24 00:16:01;;;;;;;16.40;11.15;;;;;;;2.38;100.00;102189.41;5073446;28;20356;-77
2023/01/24 00:18:27;;;;;;;19.10;12.48;;;;;;;2.52;100.00;102194.97;5073426;28;20222;-77
2023/01/24 00:21:02;;;;;;;18.70;12.25;;;;;;;2.44;100.00;102188.59;5073919;28;20210;-77
2023/01/24 00:23:29;;;;;;;21.75;12.82;;;;;;;2.48;100.00;102193.13;5073220;28;20202;-78
2023/01/24 00:25:56;;;;;;;18.20;11.45;;;;;;;2.49;100.00;102192.25;5074644;28;20213;-79
2023/01/24 00:28:22;;;;;;;16.50;11.38;;;;;;;2.47;100.00;102192.22;5075484;28;20276;-76
2023/01/24 00:30:49;;;;;;;20.85;12.73;;;;;;;2.49;100.00;102194.94;5093765;22;20257;-75
2023/01/24 00:33:15;;;;;;;20.67;12.13;;;;;;;2.42;100.00;102191.25;5074259;28;20207;-77
2023/01/24 00:35:42;;;;;;;20.50;11.98;;;;;;;2.40;100.00;102190.34;5057748;28;20226;-75
2023/01/24 00:38:10;;;;;;;19.45;11.73;;;;;;;2.46;100.00;102197.50;5091718;28;20184;-76
2023/01/24 00:40:36;;;;;;;20.52;12.63;;;;;;;2.46;100.00;102189.53;5093555;28;20214;-75
2023/01/24 00:43:03;;;;;;;21.27;12.43;;;;;;;2.50;100.00;102194.94;5091623;28;20289;-75
2023/01/24 00:45:29;;;;;;;20.17;11.15;;;;;;;2.54;100.00;102189.69;5089659;28;20267;-75
2023/01/24 00:47:56;;;;;;;20.88;12.30;;;;;;;2.55;100.00;102195.00;5083938;28;20202;-75
2023/01/24 00:50:22;;;;;;;23.15;12.95;;;;;;;2.62;100.00;102199.56;5085536;28;20243;-75
2023/01/24 00:52:49;;;;;;;23.67;12.73;;;;;;;2.65;100.00;102198.72;5085541;28;20190;-75
2023/01/24 00:55:17;;;;;;;18.20;12.13;;;;;;;2.66;100.00;102204.06;5088087;28;20294;-75
2023/01/24 00:57:44;;;;;;;19.83;13.25;;;;;;;2.70;100.00;102213.00;5085054;28;20691;-74
2023/01/24 01:00:12;;;;;;;19.40;12.35;;;;;;;2.61;100.00;102202.19;5063131;28;20771;-75
2023/01/24 01:02:38;;;;;;;22.13;13.57;;;;;;;2.68;100.00;102204.97;5057847;28;20204;-75
2023/01/24 01:05:06;;;;;;;22.20;12.57;;;;;;;2.67;100.00;102211.19;5059219;28;20200;-73
2023/01/24 01:07:32;;;;;;;21.15;12.88;;;;;;;2.63;100.00;102203.13;5064052;28;20202;-77
2023/01/24 01:09:59;;;;;;;22.25;12.77;;;;;;;2.52;100.00;102200.28;5062075;28;20227;-75
2023/01/24 01:12:27;;;;;;;21.85;12.57;;;;;;;2.42;100.00;102196.59;5061777;28;20213;-74
2023/01/24 01:14:54;;;;;;;21.88;12.00;;;;;;;2.27;100.00;102188.34;5062811;28;20206;-75
2023/01/24 01:17:20;;;;;;;19.70;12.15;;;;;;;2.16;100.00;102198.78;5060765;28;20226;-76
2023/01/24 01:19:47;;;;;;;23.38;14.10;;;;;;;2.10;100.00;102206.63;5059238;28;20322;-76
2023/01/24 01:22:13;;;;;;;21.95;12.20;;;;;;;2.01;100.00;102198.50;5076099;28;20290;-74
2023/01/24 01:24:40;;;;;;;22.25;12.73;;;;;;;2.01;100.00;102195.84;5083812;28;20582;-75
2023/01/24 01:27:06;;;;;;;19.00;12.60;;;;;;;1.88;100.00;102203.59;5083711;28;20204;-75
2023/01/24 01:29:35;;;;;;;19.77;11.05;;;;;;;1.86;100.00;102213.28;5083507;28;20242;-74
2023/01/24 01:32:02;;;;;;;24.15;13.15;;;;;;;1.80;100.00;102217.59;5082055;28;20225;-75
2023/01/24 01:34:29;;;;;;;21.13;11.98;;;;;;;1.71;100.00;102207.66;5078200;28;20206;-75
2023/01/24 01:36:55;;;;;;;23.02;12.55;;;;;;;1.73;100.00;102216.56;5076015;28;20214;-75
2023/01/24 01:39:22;;;;;;;23.63;13.20;;;;;;;1.72;100.00;102211.22;5076354;28;20234;-76
2023/01/24 01:41:48;;;;;;;22.30;12.70;;;;;;;1.73;100.00;102218.34;5076016;28;20199;-75
2023/01/24 01:47:07;;;;;;;18.67;12.02;;;;;;;1.60;100.00;102207.44;5056577;28;20187;-75
2023/01/24 01:49:34;;;;;;;23.60;13.95;;;;;;;1.58;100.00;102211.84;5055914;28;20220;-76
2023/01/24 01:52:04;;;;;;;21.42;13.02;;;;;;;1.58;100.00;102213.59;5069933;28;20294;-76
2023/01/24 01:54:36;;;;;;;26.90;13.77;;;;;;;1.52;100.00;102197.56;5077962;28;20284;-75
2023/01/24 01:57:06;;;;;;;28.33;13.93;;;;;;;1.61;100.00;102214.56;5077789;28;20198;-75
2023/01/24 01:59:39;;;;;;;23.23;13.77;;;;;;;1.59;100.00;102205.66;5077904;28;20270;-75
2023/01/24 02:02:09;;;;;;;23.42;13.38;;;;;;;1.59;100.00;102212.75;5072833;28;20278;-74
2023/01/24 02:04:39;;;;;;;23.85;13.85;;;;;;;1.54;100.00;102217.97;5057785;28;20195;-75
2023/01/24 02:07:10;;;;;;;24.95;14.90;;;;;;;1.59;100.00;102218.06;5046894;28;20200;-76
2023/01/24 02:09:40;;;;;;;23.17;13.98;;;;;;;1.54;100.00;102222.34;5043379;28;20225;-74
2023/01/24 02:12:11;;;;;;;25.10;14.20;;;;;;;1.56;100.00;102231.25;5041678;28;20673;-74
2023/01/24 02:17:25;;;;;;;20.85;13.27;;;;;;;1.52;100.00;102240.03;5071702;28;20699;-75
2023/01/24 02:20:03;;;;;;;22.27;12.85;;;;;;;1.51;100.00;102233.81;5081024;28;20769;-75
2023/01/24 02:22:40;;;;;;;26.23;14.75;;;;;;;1.51;100.00;102239.13;5079343;28;20242;-75
2023/01/24 02:25:15;;;;;;;25.10;13.95;;;;;;;1.63;100.00;102235.84;5077853;28;20228;-75
2023/01/24 02:27:43;;;;;;;22.45;12.77;;;;;;;1.61;100.00;102240.25;5076347;28;20180;-76
2023/01/24 02:30:11;;;;;;;28.58;15.63;;;;;;;1.61;100.00;102240.25;5073165;28;20235;-75
2023/01/24 02:32:37;;;;;;;23.05;13.82;;;;;;;1.54;100.00;102232.97;5056049;28;20238;-75
2023/01/24 02:35:05;;;;;;;23.40;13.77;;;;;;;1.52;100.00;102240.03;5058399;28;20214;-75
2023/01/24 02:37:33;;;;;;;22.92;13.40;;;;;;;1.55;100.00;102232.13;5057378;28;20243;-75
2023/01/24 02:40:06;;;;;;;27.50;13.88;;;;;;;1.47;100.00;102229.31;5055584;28;20271;-75
2023/01/24 02:42:35;;;;;;;25.77;13.55;;;;;;;1.49;100.00;102232.88;5056089;28;20592;-75
2023/01/24 02:45:09;;;;;;;21.70;12.20;;;;;;;1.44;100.00;102239.88;5056173;28;20207;-76
2023/01/24 02:47:38;;;;;;;23.23;13.85;;;;;;;1.43;100.00;102240.75;5054093;28;20180;-75
2023/01/24 02:50:06;;;;;;;25.52;14.07;;;;;;;1.45;100.00;102239.91;5055865;28;20210;-75
2023/01/24 02:55:16;;;;;;;23.90;13.95;;;;;;;1.54;100.00;102236.56;4993599;28;20201;-75
2023/01/24 03:00:28;;;;;;;27.27;15.27;;;;;;;1.47;100.00;102242.59;4976964;28;20231;-75
2023/01/24 03:02:55;;;;;;;24.88;13.70;;;;;;;1.55;100.00;102240.09;4992480;28;20215;-76
2023/01/24 03:05:22;;;;;;;25.40;13.88;;;;;;;1.66;100.00;102244.75;4992990;28;20286;-75
2023/01/24 03:07:48;;;;;;;23.00;13.30;;;;;;;1.71;100.00;102230.69;4992411;28;20215;-77
2023/01/24 03:10:17;;;;;;;26.33;14.43;;;;;;;1.87;100.00;102243.41;4993170;28;20606;-75
2023/01/24 03:34:48;;;;;;;23.40;13.40;;;;;;;2.19;100.00;102240.47;5037786;28;20210;-76
2023/01/24 03:37:15;;;;;;;19.48;12.02;;;;;;;2.26;100.00;102245.03;5041941;28;20346;-76
2023/01/24 03:39:58;;;;;;;24.80;13.95;;;;;;;2.34;100.00;102247.84;5052230;28;20293;-76
2023/01/24 03:42:25;;;;;;;20.10;12.55;;;;;;;2.31;100.00;102254.00;5078998;28;20208;-76
2023/01/24 03:44:51;;;;;;;23.08;13.02;;;;;;;2.36;100.00;102248.78;5072288;28;20203;-75
2023/01/24 03:47:19;;;;;;;18.65;11.02;;;;;;;2.40;100.00;102250.63;5054736;28;20202;-75
2023/01/24 03:52:31;;;;;;;21.42;12.60;;;;;;;2.41;100.00;102252.41;5053278;28;20190;-75
2023/01/24 03:54:59;;;;;;;21.00;12.82;;;;;;;2.45;100.00;102251.59;5068513;28;20208;-75
2023/01/24 03:57:28;;;;;;;21.73;11.88;;;;;;;2.51;100.00;102259.69;5071389;28;20222;-75
2023/01/24 03:59:54;;;;;;;20.88;12.98;;;;;;;2.51;100.00;102259.69;5053689;28;20228;-77
2023/01/24 04:02:25;;;;;;;18.00;11.52;;;;;;;2.48;100.00;102254.28;5054185;28;20202;-76
2023/01/24 04:07:36;;;;;;;21.25;12.43;;;;;;;2.57;100.00;102262.44;5053887;28;20192;-76
2023/01/24 04:10:03;;;;;;;21.50;12.32;;;;;;;2.58;100.00;102272.22;5059554;28;20223;-75
2023/01/24 04:12:30;;;;;;;21.60;11.70;;;;;;;2.56;100.00;102260.66;5057009;28;20206;-75
2023/01/24 04:14:56;;;;;;;20.90;12.65;;;;;;;2.61;100.00;102266.94;5063233;28;20221;-76
2023/01/24 04:17:24;;;;;;;21.45;12.57;;;;;;;2.65;100.00;102268.78;5073384;28;20231;-75
2023/01/24 04:19:51;;;;;;;17.70;11.10;;;;;;;2.62;100.00;102258.09;5069608;28;20751;-74
2023/01/24 04:22:18;;;;;;;20.02;11.25;;;;;;;2.64;100.00;102259.00;5064657;28;20206;-74
2023/01/24 04:24:45;;;;;;;16.92;10.93;;;;;;;2.63;100.00;102259.00;5078877;28;20212;-76
2023/01/24 04:27:12;;;;;;;20.50;12.27;;;;;;;2.61;100.00;102252.75;5075314;28;20297;-76
2023/01/24 04:29:39;;;;;;;22.35;12.35;;;;;;;2.57;100.00;102249.13;5074110;28;20254;-75
2023/01/24 04:32:06;;;;;;;22.20;11.35;;;;;;;2.63;100.00;102254.56;5074122;28;20206;-76
2023/01/24 04:34:34;;;;;;;21.35;12.70;;;;;;;2.67;100.00;102252.88;5074115;28;20208;-75
2023/01/24 04:37:00;;;;;;;19.95;11.70;;;;;;;2.64;100.00;102247.47;5065450;28;20223;-76
2023/01/24 04:39:27;;;;;;;19.45;11.90;;;;;;;2.63;100.00;102243.91;5063303;28;20258;-75
2023/01/24 04:41:53;;;;;;;20.95;12.35;;;;;;;2.63;100.00;102251.00;5064269;28;20195;-75
2023/01/24 04:44:20;;;;;;;21.83;12.48;;;;;;;2.63;100.00;102257.22;5053254;28;20582;-75
2023/01/24 04:46:46;;;;;;;16.58;11.50;;;;;;;2.56;100.00;102252.66;5052836;28;20197;-76
2023/01/24 04:49:13;;;;;;;20.77;12.20;;;;;;;2.64;100.00;102253.69;5052519;28;20630;-77
2023/01/24 04:51:42;;;;;;;20.23;12.80;;;;;;;2.70;100.00;102245.81;5052387;28;20195;-76
2023/01/24 04:54:09;;;;;;;21.42;12.90;;;;;;;2.70;100.00;102252.91;5052600;28;20289;-75
2023/01/24 04:56:36;;;;;;;22.83;13.45;;;;;;;2.70;100.00;102248.47;5056694;28;20223;-74
2023/01/24 04:59:03;;;;;;;21.02;12.75;;;;;;;2.68;100.00;102250.22;5058152;28;20227;-74
2023/01/24 05:01:29;;;;;;;20.45;13.45;;;;;;;2.70;100.00;102256.44;5057948;28;20212;-75
2023/01/24 05:03:58;;;;;;;23.63;13.60;;;;;;;2.67;100.00;102251.09;5058053;28;20200;-75
2023/01/24 05:06:25;;;;;;;23.60;12.52;;;;;;;2.80;100.00;102253.94;5055591;28;20249;-75
2023/01/24 05:08:53;;;;;;;24.02;13.95;;;;;;;2.69;100.00;102260.00;5052947;28;20258;-76
2023/01/24 05:11:19;;;;;;;20.63;12.63;;;;;;;2.69;100.00;102260.00;5069163;28;20209;-76
2023/01/24 05:13:46;;;;;;;24.50;12.75;;;;;;;2.74;100.00;102252.09;5072664;28;20203;-76
2023/01/24 05:16:13;;;;;;;19.35;11.70;;;;;;;2.73;100.00;102247.63;5074728;28;20211;-75
2023/01/24 05:18:39;;;;;;;22.58;14.27;;;;;;;2.74;100.00;102259.16;5073653;28;20222;-75
2023/01/24 05:21:07;;;;;;;17.05;10.95;;;;;;;2.82;100.00;102260.19;5072753;28;20395;-75
2023/01/24 05:23:33;;;;;;;20.65;12.25;;;;;;;2.83;100.00;102262.00;5072882;28;20248;-77
2023/01/24 05:26:02;;;;;;;19.55;10.98;;;;;;;2.83;100.00;102246.91;5051785;28;20201;-75
2023/01/24 05:28:29;;;;;;;17.02;10.48;;;;;;;2.79;100.00;102257.47;5052578;28;20202;-76
2023/01/24 05:30:58;;;;;;;30.55;17.00;;;;;;;2.78;100.00;102261.91;5061140;28;20259;-76
2023/01/24 05:33:25;;;;;;;22.08;12.15;;;;;;;2.72;100.00;102262.69;5055939;28;20208;-75
2023/01/24 05:35:58;;;;;;;20.25;12.35;;;;;;;2.78;100.00;102258.34;5058693;28;20209;-75
2023/01/24 05:38:24;;;;;;;20.45;12.90;;;;;;;2.77;100.00;102264.53;5055578;28;20224;-76
2023/01/24 05:40:51;;;;;;;19.92;12.27;;;;;;;2.76;100.00;102273.38;5061699;28;20220;-75
2023/01/24 05:43:19;;;;;;;21.58;12.20;;;;;;;2.78;100.00;102266.31;5076060;28;20208;-77
2023/01/24 05:45:45;;;;;;;28.58;14.80;;;;;;;2.77;100.00;102264.53;5070072;28;20195;-76
2023/01/24 05:48:12;;;;;;;21.25;12.85;;;;;;;2.79;100.00;102269.00;5057163;28;20206;-75
2023/01/24 05:50:38;;;;;;;18.15;12.32;;;;;;;2.81;100.00;102267.28;5056241;28;20305;-76
2023/01/24 05:53:05;;;;;;;20.58;12.20;;;;;;;2.82;100.00;102265.50;5056405;28;20697;-75
2023/01/24 05:55:31;;;;;;;20.88;11.45;;;;;;;2.91;100.00;102271.88;5056168;28;20211;-75
2023/01/24 05:58:00;;;;;;;21.77;13.07;;;;;;;2.85;100.00;102270.88;5055189;28;20245;-75
2023/01/24 06:00:27;;;;;;;20.65;11.57;;;;;;;2.83;100.00;102265.53;5056239;28;20227;-75
2023/01/24 06:02:54;;;;;;;19.25;12.05;;;;;;;2.84;100.00;102271.75;5071955;28;20199;-75
2023/01/24 06:05:21;;;;;;;21.55;12.13;;;;;;;2.83;100.00;102280.63;5091089;28;20202;-74
2023/01/24 06:07:47;;;;;;;22.00;12.50;;;;;;;2.89;100.00;102283.34;5086659;28;20567;-74
2023/01/24 06:10:14;;;;;;;21.63;12.90;;;;;;;2.83;100.00;102278.84;5086709;28;20242;-77
2023/01/24 06:12:40;;;;;;;18.92;11.38;;;;;;;2.81;100.00;102285.03;5087550;28;20210;-77
2023/01/24 06:15:08;;;;;;;20.65;12.38;;;;;;;2.80;100.00;102288.53;5086220;28;20234;-74
2023/01/24 06:17:36;;;;;;;19.05;11.70;;;;;;;2.79;100.00;102279.66;5080154;28;20274;-75
2023/01/24 06:20:03;;;;;;;21.38;11.25;;;;;;;2.87;100.00;102294.00;5057282;28;20232;-76
2023/01/24 06:22:40;;;;;;;17.67;10.80;;;;;;;2.89;100.00;102299.31;5057151;28;20206;-76
2023/01/24 06:25:17;;;;;;;22.75;13.88;;;;;;;2.86;100.00;102299.28;5070622;28;20231;-75
2023/01/24 06:27:44;;;;;;;20.52;12.10;;;;;;;2.84;100.00;102303.69;5056713;28;20191;-76
2023/01/24 06:30:13;;;;;;;18.80;11.65;;;;;;;2.85;100.00;102311.72;5079444;22;20240;-75
2023/01/24 06:32:58;;;;;;;21.55;12.60;;;;;;;2.88;100.00;102313.53;5089213;28;20234;-75
2023/01/24 06:35:32;;;;;;;16.38;10.48;;;;;;;2.86;100.00;102313.50;5065027;28;20220;-76
2023/01/24 06:37:59;;;;;;;19.08;12.02;;;;;;;2.86;100.00;102315.25;5059287;28;20212;-76
2023/01/24 06:40:26;;;;;;;20.75;11.80;;;;;;;2.88;100.00;102314.41;5060284;28;20273;-75
2023/01/24 06:42:54;;;;;;;21.08;12.05;;;;;;;2.91;100.00;102324.22;5058530;28;20196;-75
2023/01/24 06:45:21;;;;;;;21.25;12.25;;;;;;;2.92;100.00;102318.91;5049968;28;20200;-76
2023/01/24 06:47:49;;;;;;;19.20;11.68;;;;;;;2.96;100.00;102327.84;5043839;28;20215;-76
2023/01/24 06:50:18;;;;;;;21.55;12.18;;;;;;;2.87;100.00;102333.00;5054255;28;20225;-77
2023/01/24 06:52:46;;;;;;;33.13;19.65;;;;;;;2.93;100.00;102331.34;5050781;28;20199;-75
2023/01/24 06:55:13;;;;;;;93.07;50.92;;;;;;;3.13;100.00;102326.34;5038291;28;20635;-78
2023/01/24 06:57:39;;;;;;;33.28;20.23;;;;;;;3.16;100.00;102333.50;5039934;28;20227;-77
2023/01/24 07:00:07;;;;;;;22.83;14.93;;;;;;;3.14;100.00;102332.56;5036928;28;20246;-76
2023/01/24 07:02:36;;;;;;;22.58;11.10;;;;;;;3.15;100.00;102334.38;5036307;28;20622;-76
2023/01/24 07:05:04;;;;;;;23.10;13.50;;;;;;;3.07;100.00;102341.34;5036024;28;20687;-76
2023/01/24 07:07:30;;;;;;;19.92;12.35;;;;;;;3.04;100.00;102347.50;5039935;28;20231;-74
2023/01/24 07:09:57;;;;;;;18.67;12.27;;;;;;;3.01;100.00;102347.47;5021627;28;20554;-76
2023/01/24 07:12:24;;;;;;;21.08;12.20;;;;;;;3.03;100.00;102348.41;5037170;28;20597;-76
2023/01/24 07:14:50;;;;;;;20.60;11.90;;;;;;;2.98;100.00;102346.50;5036272;28;20227;-75
2023/01/24 07:17:17;;;;;;;22.27;12.50;;;;;;;3.02;100.00;102349.25;5036500;28;20231;-76
2023/01/24 07:19:44;;;;;;;20.10;13.02;;;;;;;2.96;100.00;102350.91;5036075;28;20244;-75
2023/01/24 07:22:14;;;;;;;23.10;12.23;;;;;;;3.02;100.00;102349.25;5036739;28;20295;-76
2023/01/24 07:24:42;;;;;;;18.75;12.35;;;;;;;2.91;100.00;102348.16;5038174;28;20264;-75
2023/01/24 07:27:09;;;;;;;19.98;12.45;;;;;;;2.98;100.00;102354.50;5041755;28;20218;-76
2023/01/24 07:29:36;;;;;;;23.23;12.25;;;;;;;3.02;100.00;102351.91;5057031;28;20265;-74
2023/01/24 07:32:03;;;;;;;21.98;13.75;;;;;;;3.06;100.00;102363.53;5047364;28;20255;-76
2023/01/24 07:34:30;;;;;;;19.27;11.63;;;;;;;3.07;100.00;102355.53;5063657;28;20289;-76
2023/01/24 07:36:56;;;;;;;17.92;11.25;;;;;;;3.09;100.00;102364.44;5063184;28;20275;-75
2023/01/24 07:39:25;;;;;;;20.17;11.88;;;;;;;3.07;100.00;102373.28;5043538;28;20230;-76
2023/01/24 07:41:51;;;;;;;20.50;12.00;;;;;;;3.06;100.00;102369.72;5041849;28;20287;-76
2023/01/24 07:44:18;;;;;;;22.35;12.02;;;;;;;3.08;100.00;102375.09;5058604;28;20207;-76
2023/01/24 07:46:44;;;;;;;16.63;11.00;;;;;;;3.13;100.00;102368.97;5064875;28;20206;-76
2023/01/24 07:49:11;;;;;;;17.77;11.20;;;;;;;3.09;100.00;102367.09;5070056;28;20267;-77
2023/01/24 07:51:39;;;;;;;19.70;12.85;;;;;;;3.17;100.00;102374.34;5071676;28;20201;-75
2023/01/24 07:54:06;;;;;;;20.23;11.68;;;;;;;3.17;100.00;102374.34;5067054;28;20203;-75
2023/01/24 07:56:34;;;;;;;18.45;11.00;;;;;;;3.10;100.00;102379.56;5059962;28;20287;-74
2023/01/24 07:59:00;;;;;;;17.73;11.82;;;;;;;3.11;100.00;102380.47;5049731;28;20298;-75
2023/01/24 08:01:27;;;;;;;18.92;10.63;;;;;;;3.11;100.00;102386.66;5062388;28;20219;-75
2023/01/24 08:03:56;;;;;;;19.13;11.73;;;;;;;3.20;100.00;102395.69;5062071;28;20211;-75
2023/01/24 08:06:22;;;;;;;20.80;11.88;;;;;;;3.17;100.00;102387.66;5060783;28;20205;-77
2023/01/24 08:08:49;;;;;;;21.88;12.52;;;;;;;3.21;100.00;102397.47;5042992;28;20725;-75
2023/01/24 08:11:17;;;;;;;19.98;10.85;;;;;;;3.33;100.00;102395.94;5060235;28;20284;-75
2023/01/24 08:13:45;;;;;;;18.73;12.43;;;;;;;3.27;100.00;102400.25;5049355;28;20207;-76
2023/01/24 08:16:11;;;;;;;17.00;10.43;;;;;;;3.20;100.00;102399.25;5043036;28;20211;-76
2023/01/24 08:18:38;;;;;;;23.45;11.25;;;;;;;3.27;100.00;102401.13;5026789;28;20699;-76
2023/01/24 08:21:06;;;;;;;19.65;11.63;;;;;;;3.30;100.00;102400.28;5023428;28;20303;-75
2023/01/24 08:23:32;;;;;;;16.92;10.65;;;;;;;3.30;100.00;102398.56;5022150;28;20271;-76
2023/01/24 08:25:59;;;;;;;18.60;11.40;;;;;;;3.36;100.00;102397.75;5020926;28;20558;-76
2023/01/24 08:28:26;;;;;;;17.52;11.38;;;;;;;3.37;100.00;102398.63;5041346;28;20232;-69
2023/01/24 08:30:54;;;;;;;71.78;39.90;;;;;;;3.47;100.00;102395.25;5037910;28;20238;-70
2023/01/24 08:33:20;;;;;;;37.63;22.38;;;;;;;3.66;100.00;102399.09;5054670;28;20214;-76
2023/01/24 08:35:47;;;;;;;18.00;10.90;;;;;;;3.64;100.00;102398.16;5055114;28;20206;-76
2023/01/24 08:38:15;;;;;;;19.80;11.52;;;;;;;3.50;100.00;102393.50;5054106;28;20218;-75
2023/01/24 08:40:42;;;;;;;17.73;10.65;;;;;;;3.52;100.00;102396.22;5041817;28;20247;-76
2023/01/24 08:43:09;;;;;;;17.25;10.75;;;;;;;3.54;100.00;102402.47;5035789;28;20197;-77
2023/01/24 08:45:36;;;;;;;15.30;9.48;;;;;;;3.51;100.00;102408.66;5034677;28;20669;-75
2023/01/24 08:48:05;;;;;;;16.40;10.30;;;;;;;3.53;100.00;102396.25;5033727;28;20765;-76
2023/01/24 08:50:31;;;;;;;18.70;9.75;;;;;;;3.55;100.00;102404.28;5038378;28;20283;-77
2023/01/24 08:52:58;;;;;;;16.90;10.05;;;;;;;3.55;100.00;102405.16;5051763;28;20204;-76
2023/01/24 08:55:25;;;;;;;15.52;9.82;;;;;;;3.62;100.00;102405.22;5042841;28;20274;-76
2023/01/24 08:57:52;;;;;;;17.40;10.15;;;;;;;3.62;100.00;102407.91;5035207;28;20220;-77
2023/01/24 09:00:19;;;;;;;16.80;9.70;;;;;;;3.64;100.00;102408.81;5037836;28;20650;-76
2023/01/24 09:02:45;;;;;;;18.85;11.10;;;;;;;3.63;100.00;102407.03;5035252;28;20204;-76
2023/01/24 09:05:14;;;;;;;17.00;10.23;;;;;;;3.56;100.00;102411.38;5034791;28;20548;-76
2023/01/24 09:07:41;;;;;;;15.68;10.18;;;;;;;3.58;100.00;102416.75;5046866;28;20207;-76
2023/01/24 09:10:09;;;;;;;15.27;9.38;;;;;;;3.62;100.00;102415.91;5057720;28;20223;-76
2023/01/24 09:12:35;;;;;;;16.88;10.30;;;;;;;3.68;100.00;102418.66;5023536;28;20431;-76
2023/01/24 09:15:02;;;;;;;16.25;9.55;;;;;;;3.69;100.00;102417.81;5044103;28;20287;-77
2023/01/24 09:17:29;;;;;;;16.40;9.68;;;;;;;3.72;100.00;102412.50;5038095;28;20214;-76
2023/01/24 09:19:55;;;;;;;16.02;9.40;;;;;;;3.78;100.00;102419.69;5038146;28;20238;-77
2023/01/24 09:22:23;;;;;;;16.30;9.27;;;;;;;3.78;100.00;102420.63;5055408;28;20207;-74
2023/01/24 09:24:50;;;;;;;15.15;9.20;;;;;;;3.72;100.00;102425.84;5034219;28;20212;-77
2023/01/24 09:27:16;;;;;;;15.55;9.45;;;;;;;3.64;100.00;102419.47;5039789;28;20294;-76
2023/01/24 09:29:43;;;;;;;14.85;8.88;;;;;;;3.61;100.00;102438.09;5037282;28;20242;-76
2023/01/24 09:32:09;;;;;;;13.50;8.30;;;;;;;3.68;100.00;102432.00;5038685;28;20204;-76
2023/01/24 09:34:36;;;;;;;15.77;9.48;;;;;;;3.65;100.00;102430.19;5038821;28;20205;-76
2023/01/24 09:37:02;;;;;;;16.25;9.80;;;;;;;3.76;100.00;102430.34;5039660;28;20704;-78
2023/01/24 09:39:30;;;;;;;15.57;9.70;;;;;;;3.87;100.00;102422.53;5041728;28;20308;-77
2023/01/24 09:42:04;;;;;;;16.40;10.13;;;;;;;3.87;100.00;102433.19;5040764;28;20214;-77
2023/01/24 09:44:39;;;;;;;16.63;10.02;;;;;;;3.83;100.00;102431.34;5040441;28;20216;-77
2023/01/24 09:47:18;;;;;;;15.82;9.63;;;;;;;3.79;100.00;102430.38;5043094;28;20191;-78
2023/01/24 09:49:50;;;;;;;16.50;9.73;;;;;;;3.73;100.00;102436.53;5052949;28;20714;-77
2023/01/24 09:52:24;;;;;;;16.33;9.90;;;;;;;3.72;100.00;102433.84;5040759;28;20238;-77
2023/01/24 09:54:58;;;;;;;13.38;9.27;;;;;;;3.72;100.00;102429.38;5042867;28;20188;-77
2023/01/24 09:57:28;;;;;;;19.08;10.10;;;;;;;3.79;100.00;102440.16;5023772;28;20217;-76
2023/01/24 10:00:01;;;;;;;14.00;9.00;;;;;;;3.81;100.00;102443.75;5018864;28;20646;-76
2023/01/24 10:02:28;;;;;;;16.20;9.52;;;;;;;3.73;100.00;102444.53;5031776;28;20323;-76
2023/01/24 10:04:55;;;;;;;15.73;9.63;;;;;;;3.72;100.00;102434.72;5058457;28;20591;-77
2023/01/24 10:07:38;;;;;;;15.35;9.05;;;;;;;3.70;100.00;102446.25;5059355;28;20231;-76
2023/01/24 10:10:19;;;;;;;13.07;8.65;;;;;;;3.77;100.00;102442.78;5045108;28;20224;-76
2023/01/24 10:12:55;;;;;;;15.80;9.10;;;;;;;3.67;100.00;102436.44;5053629;28;20261;-76
2023/01/24 10:15:37;;;;;;;17.38;10.32;;;;;;;3.67;100.00;102455.09;5055388;28;20243;-75
2023/01/24 10:18:15;;;;;;;16.50;9.70;;;;;;;3.66;100.00;102439.06;5054498;28;20183;-76
2023/01/24 10:21:08;;;;;;;14.55;9.68;;;;;;;3.72;100.00;102437.38;5044761;28;20251;-76
2023/01/24 10:23:39;;;;;;;13.70;9.00;;;;;;;3.65;100.00;102443.50;5040149;28;20192;-76
2023/01/24 10:26:18;;;;;;;19.08;9.88;;;;;;;3.67;100.00;102439.09;5039881;28;20293;-76
2023/01/24 10:28:48;;;;;;;15.00;8.55;;;;;;;3.68;100.00;102443.53;5039623;28;20188;-76
2023/01/24 10:31:20;;;;;;;14.38;9.57;;;;;;;3.78;100.00;102447.25;5040463;28;20797;-76
2023/01/24 10:33:50;;;;;;;13.23;8.70;;;;;;;3.83;100.00;102442.00;5041341;28;20192;-77
2023/01/24 10:36:26;;;;;;;16.55;9.45;;;;;;;3.86;100.00;102448.25;5040038;28;20287;-76
2023/01/24 10:38:53;;;;;;;15.00;9.30;;;;;;;3.88;100.00;102449.19;5041387;28;20271;-75
2023/01/24 10:41:23;;;;;;;12.75;8.15;;;;;;;3.81;100.00;102449.97;5047475;28;20258;-76
2023/01/24 10:43:55;;;;;;;14.60;8.80;;;;;;;3.77;100.00;102442.78;5059750;28;20279;-77
2023/01/24 10:46:47;;;;;;;13.23;8.23;;;;;;;3.68;100.00;102432.88;5066656;28;20209;-76
2023/01/24 10:49:21;;;;;;;10.45;6.97;;;;;;;3.74;100.00;102432.09;5048132;28;20260;-75
2023/01/24 10:52:09;;;;;;;12.57;8.25;;;;;;;3.84;100.00;102439.34;5043968;28;20541;-77
2023/01/24 10:54:43;;;;;;;15.93;8.27;;;;;;;3.93;100.00;102441.25;5049737;28;20196;-77
2023/01/24 10:57:27;;;;;;;11.60;8.20;;;;;;;4.01;100.00;102446.72;5041145;28;20404;-76
2023/01/24 10:59:55;;;;;;;14.68;8.30;;;;;;;3.87;100.00;102442.06;5038040;28;20223;-76
2023/01/24 11:02:24;;;;;;;12.40;8.20;;;;;;;3.94;100.00;102433.28;5041939;28;20200;-76
2023/01/24 11:04:59;;;;;;;11.80;8.18;;;;;;;3.93;100.00;102431.50;5041709;28;20267;-77
2023/01/24 11:07:29;;;;;;;11.73;7.28;;;;;;;3.95;100.00;102435.06;5041117;28;20205;-76
2023/01/24 11:09:59;;;;;;;13.57;8.07;;;;;;;3.90;100.00;102435.88;5055013;28;20228;-77
2023/01/24 11:12:27;;;;;;;12.75;8.20;;;;;;;3.93;100.00;102439.50;5055799;28;20200;-77
2023/01/24 11:14:54;;;;;;;12.15;7.85;;;;;;;4.03;100.00;102437.84;5070273;28;20189;-75
2023/01/24 11:17:42;;;;;;;12.50;8.05;;;;;;;4.01;100.00;102436.03;5078144;28;20191;-75
2023/01/24 11:20:28;;;;;;;12.20;8.30;;;;;;;4.11;100.00;102427.28;5077447;28;20226;-75
2023/01/24 11:23:07;;;;;;;12.68;8.43;;;;;;;4.08;100.00;102432.59;5076798;28;20188;-75
2023/01/24 11:25:33;;;;;;;13.32;8.00;;;;;;;3.94;100.00;102435.94;5075627;28;20193;-76
2023/01/24 11:28:01;;;;;;;14.57;9.30;;;;;;;3.96;100.00;102428.88;5061477;28;20260;-77
2023/01/24 11:30:34;;;;;;;171.07;104.93;;;;;;;4.08;100.00;102435.25;5047162;28;20327;-71
2023/01/24 11:33:19;;;;;;;30.40;18.60;;;;;;;4.31;100.00;102425.78;5043039;28;20193;-76
2023/01/24 11:35:50;;;;;;;13.85;9.73;;;;;;;4.38;100.00;102427.63;5041443;28;20630;-77
2023/01/24 11:38:25;;;;;;;11.93;7.50;;;;;;;4.36;100.00;102425.81;5045118;28;20460;-77
2023/01/24 11:41:03;;;;;;;13.68;8.32;;;;;;;4.28;100.00;102417.75;5044123;28;20237;-77
2023/01/24 11:44:06;;;;;;;13.27;7.65;;;;;;;4.31;100.00;102412.44;5046856;28;20656;-75
2023/01/24 11:46:52;;;;;;;14.05;8.25;;;;;;;4.41;100.00;102408.13;5043819;28;20663;-76
2023/01/24 11:49:35;;;;;;;125.40;74.18;;;;;;;4.37;100.00;102408.97;5041634;28;20211;-71
2023/01/24 11:52:20;;;;;;;70.95;43.17;;;;;;;4.56;100.00;102399.38;5041422;28;20650;-76
2023/01/24 11:54:56;;;;;;;18.80;11.43;;;;;;;4.43;100.00;102397.44;5040559;28;20682;-77
2023/01/24 11:57:33;;;;;;;16.42;10.02;;;;;;;4.42;100.00;102396.56;5041780;28;20216;-76
2023/01/24 12:00:19;;;;;;;13.80;9.50;;;;;;;4.34;100.00;102395.56;5029604;28;20620;-76